createdAt,value
2023-05-19T00:01:55.253Z,102097.72
2023-05-19T00:04:31.137Z,102093.38
2023-05-19T00:07:03.168Z,102096.44
2023-05-19T00:09:34.104Z,102104.00
2023-05-19T00:12:05.803Z,102109.59
2023-05-19T00:14:36.696Z,102107.06
2023-05-19T00:17:08.034Z,102111.56
2023-05-19T00:19:40.747Z,102110.28
2023-05-19T00:22:11.001Z,102102.84
2023-05-19T00:24:41.087Z,102104.81
2023-05-19T00:27:11.180Z,102104.25
2023-05-19T00:29:42.208Z,102105.22
2023-05-19T00:32:12.361Z,102102.56
2023-05-19T00:34:45.139Z,102096.50
2023-05-19T00:37:15.275Z,102097.38
2023-05-19T00:39:45.305Z,102089.41
2023-05-19T00:42:15.381Z,102091.09
2023-05-19T00:44:45.534Z,102100.03
2023-05-19T00:47:15.633Z,102089.63
2023-05-19T00:49:48.289Z,102089.06
2023-05-19T00:52:18.430Z,102094.38
2023-05-19T00:54:49.364Z,102100.69
2023-05-19T00:57:19.495Z,102098.56
2023-05-19T00:59:49.774Z,102091.84
2023-05-19T01:02:19.890Z,102093.53
2023-05-19T01:04:55.637Z,102098.13
2023-05-19T01:07:26.279Z,102094.06
2023-05-19T01:09:56.605Z,102098.09
2023-05-19T01:12:26.870Z,102102.44
2023-05-19T01:14:57.033Z,102097.41
2023-05-19T01:17:34.469Z,102095.13
2023-05-19T01:20:17.038Z,102083.06
2023-05-19T01:23:16.940Z,102089.13
2023-05-19T01:26:14.614Z,102086.84
2023-05-19T01:29:11.013Z,102081.78
2023-05-19T01:31:47.298Z,102083.16
2023-05-19T01:34:19.482Z,102086.09
2023-05-19T01:36:52.460Z,102091.66
2023-05-19T01:39:23.205Z,102093.72
2023-05-19T01:41:55.293Z,102095.78
2023-05-19T01:44:26.756Z,102098.72
2023-05-19T01:47:00.163Z,102104.03
2023-05-19T01:49:30.308Z,102099.69
2023-05-19T01:52:00.426Z,102098.13
2023-05-19T01:54:30.628Z,102100.22
2023-05-19T01:57:10.299Z,102095.13
2023-05-19T01:59:51.948Z,102097.66
2023-05-19T02:02:33.772Z,102104.06
2023-05-19T02:05:12.616Z,102090.09
2023-05-19T02:07:47.746Z,102100.97
2023-05-19T02:10:25.537Z,102099.28
2023-05-19T02:12:57.195Z,102102.19
2023-05-19T02:15:30.968Z,102102.19
2023-05-19T02:18:06.856Z,102103.03
2023-05-19T02:20:36.930Z,102102.19
2023-05-19T02:23:07.044Z,102103.16
2023-05-19T02:25:37.208Z,102104.28
2023-05-19T02:28:07.638Z,102103.16
2023-05-19T02:30:37.735Z,102105.69
2023-05-19T02:33:11.581Z,102104.84
2023-05-19T02:35:41.721Z,102099.53
2023-05-19T02:38:11.784Z,102091.56
2023-05-19T02:40:41.843Z,102100.25
2023-05-19T02:43:12.170Z,102094.81
2023-05-19T02:45:42.235Z,102094.53
2023-05-19T02:48:15.564Z,102081.97
2023-05-19T02:50:45.886Z,102085.25
2023-05-19T02:53:15.959Z,102081.22
2023-05-19T02:55:46.190Z,102087.13
2023-05-19T02:58:16.270Z,102080.13
2023-05-19T03:00:48.618Z,102075.06
2023-05-19T03:03:21.474Z,102079.53
2023-05-19T03:05:52.092Z,102084.38
2023-05-19T03:08:22.587Z,102081.97
2023-05-19T03:10:52.689Z,102077.91
2023-05-19T03:13:22.919Z,102089.25
2023-05-19T03:15:53.036Z,102084.91
2023-05-19T03:18:26.144Z,102076.81
2023-05-19T03:20:56.824Z,102075.97
2023-05-19T03:23:27.424Z,102079.72
2023-05-19T03:25:57.463Z,102081.41
2023-05-19T03:28:27.716Z,102086.00
2023-05-19T03:30:57.909Z,102083.09
2023-05-19T03:33:34.679Z,102092.47
2023-05-19T03:36:05.159Z,102087.91
2023-05-19T03:38:39.481Z,102092.94
2023-05-19T03:41:09.705Z,102086.09
2023-05-19T03:43:39.887Z,102084.97
2023-05-19T03:46:11.242Z,102080.38
2023-05-19T03:48:46.937Z,102081.81
2023-05-19T03:51:17.048Z,102079.97
2023-05-19T03:53:48.844Z,102080.56
2023-05-19T03:56:19.151Z,102088.03
2023-05-19T03:58:49.962Z,102084.84
2023-05-19T04:01:20.124Z,102085.28
2023-05-19T04:03:52.894Z,102089.34
2023-05-19T04:06:23.698Z,102084.25
2023-05-19T04:08:53.937Z,102081.88
2023-05-19T04:11:24.204Z,102086.53
2023-05-19T04:13:55.342Z,102089.63
2023-05-19T04:16:25.631Z,102087.97
2023-05-19T04:18:58.587Z,102091.66
2023-05-19T04:21:28.864Z,102094.59
2023-05-19T04:24:00.140Z,102088.03
2023-05-19T04:26:34.228Z,102086.00
2023-05-19T04:29:05.101Z,102089.34
2023-05-19T04:31:37.142Z,102089.63
2023-05-19T04:34:12.220Z,102094.53
2023-05-19T04:36:42.720Z,102091.22
2023-05-19T04:39:13.191Z,102099.34
2023-05-19T04:41:46.418Z,102093.75
2023-05-19T04:44:18.568Z,102097.50
2023-05-19T04:46:54.544Z,102099.59
2023-05-19T04:49:29.162Z,102099.53
2023-05-19T04:51:59.373Z,102096.41
2023-05-19T04:54:33.436Z,102101.31
2023-05-19T04:57:04.031Z,102099.63
2023-05-19T04:59:36.872Z,102096.38
2023-05-19T05:02:10.216Z,102096.78
2023-05-19T05:04:44.346Z,102101.38
2023-05-19T05:07:14.592Z,102099.75
2023-05-19T05:09:45.563Z,102099.84
2023-05-19T05:12:17.888Z,102096.41
2023-05-19T05:14:50.574Z,102097.69
2023-05-19T05:17:23.297Z,102092.56
2023-05-19T05:19:56.950Z,102102.03
2023-05-19T05:22:27.724Z,102103.16
2023-05-19T05:24:58.973Z,102096.53
2023-05-19T05:27:29.407Z,102095.59
2023-05-19T05:30:00.850Z,102097.94
2023-05-19T05:32:32.013Z,102098.31
2023-05-19T05:35:09.745Z,102102.88
2023-05-19T05:37:39.971Z,102100.13
2023-05-19T05:40:14.828Z,102103.72
2023-05-19T05:42:47.918Z,102109.41
2023-05-19T05:45:19.621Z,102101.84
2023-05-19T05:47:51.292Z,102104.41
2023-05-19T05:50:24.860Z,102101.38
2023-05-19T05:52:58.366Z,102097.59
2023-05-19T05:55:31.284Z,102099.03
2023-05-19T05:58:03.791Z,102102.59
2023-05-19T06:00:34.782Z,102108.63
2023-05-19T06:03:06.075Z,102109.34
2023-05-19T06:05:39.449Z,102107.06
2023-05-19T06:08:09.835Z,102105.59
2023-05-19T06:10:41.893Z,102104.25
2023-05-19T06:13:13.937Z,102096.53
2023-05-19T06:15:44.925Z,102101.31
2023-05-19T06:18:29.122Z,102094.44
2023-05-19T06:21:02.242Z,102098.56
2023-05-19T06:23:33.564Z,102099.47
2023-05-19T06:26:03.819Z,102102.72
2023-05-19T06:28:37.475Z,102101.50
2023-05-19T06:31:08.581Z,102094.31
2023-05-19T06:33:50.105Z,102096.06
2023-05-19T06:36:22.990Z,102091.44
2023-05-19T06:38:54.844Z,102100.97
2023-05-19T06:41:28.106Z,102090.75
2023-05-19T06:43:58.234Z,102098.00
2023-05-19T06:46:28.443Z,102094.28
2023-05-19T06:48:58.890Z,102101.78
2023-05-19T06:51:33.697Z,102099.66
2023-05-19T06:54:03.868Z,102099.44
2023-05-19T06:56:34.117Z,102098.44
2023-05-19T06:59:04.263Z,102094.38
2023-05-19T07:01:38.944Z,102096.88
2023-05-19T07:04:09.026Z,102098.09
2023-05-19T07:06:41.816Z,102105.06
2023-05-19T07:09:12.810Z,102106.22
2023-05-19T07:11:44.883Z,102109.56
2023-05-19T07:14:17.074Z,102112.25
2023-05-19T07:16:47.998Z,102102.47
2023-05-19T07:19:19.921Z,102104.50
2023-05-19T07:21:53.065Z,102109.22
2023-05-19T07:24:23.882Z,102108.75
2023-05-19T07:26:55.544Z,102108.00
2023-05-19T07:29:25.877Z,102111.16
2023-05-19T07:31:58.197Z,102107.91
2023-05-19T07:34:28.481Z,102106.94
2023-05-19T07:37:02.382Z,102107.59
2023-05-19T07:39:32.706Z,102111.00
2023-05-19T07:42:07.593Z,102112.28
2023-05-19T07:44:41.808Z,102102.06
2023-05-19T07:47:14.915Z,102105.38
2023-05-19T07:49:45.893Z,102094.53
2023-05-19T07:52:21.367Z,102088.38
2023-05-19T07:54:55.743Z,102100.09
2023-05-19T07:57:25.955Z,102094.03
2023-05-19T07:59:56.222Z,102092.56
2023-05-19T08:02:26.555Z,102096.63
2023-05-19T08:04:56.967Z,102095.31
2023-05-19T08:07:29.868Z,102098.97
2023-05-19T08:10:00.298Z,102087.94
2023-05-19T08:12:30.620Z,102094.84
2023-05-19T08:15:01.833Z,102089.94
2023-05-19T08:17:32.397Z,102092.63
2023-05-19T08:20:04.151Z,102091.16
2023-05-19T08:22:37.451Z,102092.59
2023-05-19T08:25:08.208Z,102098.72
2023-05-19T08:27:38.496Z,102096.50
2023-05-19T08:30:10.375Z,102092.63
2023-05-19T08:32:41.162Z,102095.63
2023-05-19T08:35:12.775Z,102105.88
2023-05-19T08:37:46.145Z,102104.81
2023-05-19T08:40:21.173Z,102089.97
2023-05-19T08:42:51.522Z,102096.06
2023-05-19T08:45:21.794Z,102092.75
2023-05-19T08:47:54.031Z,102101.06
2023-05-19T08:50:31.530Z,102096.44
2023-05-19T08:53:28.932Z,102094.56
2023-05-19T08:56:10.759Z,102100.22
2023-05-19T08:58:44.343Z,102083.25
2023-05-19T09:01:17.491Z,102081.44
2023-05-19T09:03:50.178Z,102075.03
2023-05-19T09:06:21.507Z,102075.13
2023-05-19T09:08:54.390Z,102068.38
2023-05-19T09:11:24.800Z,102063.41
2023-05-19T09:13:55.059Z,102068.47
2023-05-19T09:16:27.695Z,102072.28
2023-05-19T09:19:00.678Z,102069.41
2023-05-19T09:21:33.292Z,102053.22
2023-05-19T09:24:10.918Z,102054.94
2023-05-19T09:26:51.432Z,102053.66
2023-05-19T09:29:31.858Z,102054.44
2023-05-19T09:32:05.168Z,102052.50
2023-05-19T09:34:35.521Z,102047.28
2023-05-19T09:37:05.660Z,102049.75
2023-05-19T09:39:38.381Z,102046.97
2023-05-19T09:42:10.043Z,102047.66
2023-05-19T09:44:40.209Z,102050.22
2023-05-19T09:47:13.292Z,102044.91
2023-05-19T09:49:50.526Z,102059.63
2023-05-19T09:52:20.966Z,102045.28
2023-05-19T09:54:56.237Z,102043.16
2023-05-19T09:57:30.009Z,102043.38
2023-05-19T10:00:01.717Z,102028.38
2023-05-19T10:02:35.656Z,102039.31
2023-05-19T10:05:10.228Z,102034.56
2023-05-19T10:07:41.497Z,102035.97
2023-05-19T10:10:16.472Z,102022.00
2023-05-19T10:12:47.631Z,102025.25
2023-05-19T10:15:22.754Z,102017.28
2023-05-19T10:18:00.189Z,102008.22
2023-05-19T10:20:30.901Z,102021.81
2023-05-19T10:23:03.111Z,102012.84
2023-05-19T10:25:38.402Z,102010.41
2023-05-19T10:28:16.422Z,102019.84
2023-05-19T10:30:49.649Z,102016.50
2023-05-19T10:33:25.015Z,102021.41
2023-05-19T10:36:14.793Z,102021.44
2023-05-19T10:38:51.269Z,102019.38
2023-05-19T10:41:36.855Z,102013.75
2023-05-19T10:44:24.402Z,102008.44
2023-05-19T10:46:56.816Z,102016.81
2023-05-19T10:49:31.311Z,102006.16
2023-05-19T10:52:01.970Z,101999.16
2023-05-19T10:54:59.970Z,102010.28
2023-05-19T10:57:33.470Z,102003.28
2023-05-19T11:00:11.358Z,102000.13
2023-05-19T11:02:56.366Z,101994.91
2023-05-19T11:05:33.092Z,102000.69
2023-05-19T11:08:04.735Z,101987.53
2023-05-19T11:10:35.451Z,101989.56
2023-05-19T11:13:08.630Z,101990.47
2023-05-19T11:15:39.759Z,101997.06
2023-05-19T11:18:10.916Z,101992.78
2023-05-19T11:20:42.181Z,101992.50
2023-05-19T11:23:13.949Z,101999.63
2023-05-19T11:25:46.540Z,101987.25
2023-05-19T11:28:26.322Z,101996.41
2023-05-19T11:30:59.292Z,101990.72
2023-05-19T11:33:30.317Z,101985.59
2023-05-19T11:36:00.979Z,101998.22
2023-05-19T11:38:31.977Z,101979.47
2023-05-19T11:41:03.244Z,101976.97
2023-05-19T11:43:36.035Z,101965.75
2023-05-19T11:46:06.375Z,101972.56
2023-05-19T11:48:37.351Z,101973.09
2023-05-19T11:51:10.390Z,101982.66
2023-05-19T11:53:40.495Z,101975.13
2023-05-19T11:56:12.551Z,101957.97
2023-05-19T11:58:45.455Z,101971.41
2023-05-19T12:01:15.792Z,101972.16
2023-05-19T12:03:46.693Z,101964.09
2023-05-19T12:06:17.730Z,101969.81
2023-05-19T12:08:48.773Z,101966.44
2023-05-19T12:11:20.084Z,101971.19
2023-05-19T12:13:54.989Z,101971.03
2023-05-19T12:16:25.470Z,101975.94
2023-05-19T12:18:55.862Z,101973.06
2023-05-19T12:21:26.088Z,101955.63
2023-05-19T12:24:07.316Z,101962.97
2023-05-19T12:26:38.963Z,101967.94
2023-05-19T12:29:12.066Z,101965.47
2023-05-19T12:31:42.638Z,101969.47
2023-05-19T12:34:15.592Z,101958.25
2023-05-19T12:36:46.740Z,101961.56
2023-05-19T12:39:18.445Z,101976.84
2023-05-19T12:41:49.698Z,101962.88
2023-05-19T12:44:22.827Z,101961.47
2023-05-19T12:46:56.263Z,101958.94
2023-05-19T12:49:26.603Z,101957.91
2023-05-19T12:51:57.094Z,101950.00
2023-05-19T12:54:27.319Z,101949.22
2023-05-19T12:57:00.895Z,101945.69
2023-05-19T12:59:38.722Z,101934.84
2023-05-19T13:02:09.901Z,101945.31
2023-05-19T13:04:40.082Z,101943.63
2023-05-19T13:07:10.603Z,101940.41
2023-05-19T13:09:40.722Z,101944.22
2023-05-19T13:12:11.021Z,101941.22
2023-05-19T13:14:44.413Z,101932.38
2023-05-19T13:17:14.829Z,101939.88
2023-05-19T13:19:49.652Z,101944.69
2023-05-19T13:22:25.079Z,101939.38
2023-05-19T13:24:59.089Z,101938.78
2023-05-19T13:27:29.517Z,101945.88
2023-05-19T13:30:04.668Z,101956.09
2023-05-19T13:32:38.002Z,101932.41
2023-05-19T13:35:09.472Z,101940.31
2023-05-19T13:37:39.913Z,101939.03
2023-05-19T13:40:11.797Z,101942.38
2023-05-19T13:42:42.254Z,101945.06
2023-05-19T13:45:15.859Z,101938.16
2023-05-19T13:47:46.031Z,101941.22
2023-05-19T13:50:16.131Z,101946.97
2023-05-19T13:52:46.406Z,101934.72
2023-05-19T13:55:16.806Z,101929.34
2023-05-19T13:57:47.125Z,101933.19
2023-05-19T14:02:54.222Z,101936.09
2023-05-19T14:05:24.905Z,101940.66
2023-05-19T14:07:55.821Z,101938.16
2023-05-19T14:10:26.399Z,101935.25
2023-05-19T14:15:38.338Z,101943.34
2023-05-19T14:18:08.613Z,101944.50
2023-05-19T14:20:38.910Z,101950.09
2023-05-19T14:23:24.022Z,101942.22
2023-05-19T14:25:54.275Z,101933.13
2023-05-19T14:28:26.724Z,101935.00
2023-05-19T14:30:59.663Z,101935.25
2023-05-19T14:33:34.896Z,101939.81
2023-05-19T14:36:06.440Z,101939.63
2023-05-19T14:38:36.703Z,101948.91
2023-05-19T14:41:07.297Z,101946.13
2023-05-19T14:43:37.549Z,101953.81
2023-05-19T14:46:10.505Z,101947.16
2023-05-19T14:48:40.818Z,101954.78
2023-05-19T14:51:11.091Z,101959.31
2023-05-19T14:53:41.329Z,101952.66
2023-05-19T14:56:14.580Z,101949.88
2023-05-19T14:58:44.821Z,101947.19
2023-05-19T15:01:17.761Z,101945.34
2023-05-19T15:03:48.687Z,101947.88
2023-05-19T15:06:19.085Z,101958.59
2023-05-19T15:08:49.284Z,101951.22
2023-05-19T15:11:19.478Z,101952.16
2023-05-19T15:13:49.776Z,101949.03
2023-05-19T15:16:22.568Z,101943.13
2023-05-19T15:18:53.602Z,101946.22
2023-05-19T15:21:23.853Z,101944.63
2023-05-19T15:23:55.899Z,101942.06
2023-05-19T15:26:28.314Z,101937.72
2023-05-19T15:29:00.157Z,101943.41
2023-05-19T15:31:34.059Z,101942.69
2023-05-19T15:34:05.837Z,101950.53
2023-05-19T15:36:36.161Z,101944.97
2023-05-19T15:39:06.789Z,101942.69
2023-05-19T15:41:37.056Z,101943.09
2023-05-19T15:44:08.083Z,101938.09
2023-05-19T15:46:41.124Z,101933.78
2023-05-19T15:49:12.596Z,101932.34
2023-05-19T15:51:43.426Z,101935.75
2023-05-19T15:54:13.730Z,101930.72
2023-05-19T15:56:44.093Z,101926.81
2023-05-19T15:59:14.770Z,101934.38
2023-05-19T16:01:53.003Z,101935.34
2023-05-19T16:04:23.800Z,101934.88
2023-05-19T16:06:54.394Z,101934.84
2023-05-19T16:09:25.019Z,101928.22
2023-05-19T16:11:55.277Z,101933.03
2023-05-19T16:14:31.406Z,101930.72
2023-05-19T16:17:04.861Z,101929.13
2023-05-19T16:19:35.082Z,101922.56
2023-05-19T16:22:07.677Z,101926.09
2023-05-19T16:24:37.875Z,101924.38
2023-05-19T16:27:08.924Z,101919.50
2023-05-19T16:29:42.430Z,101916.69
2023-05-19T16:32:16.485Z,101921.34
2023-05-19T16:34:47.285Z,101916.41
2023-05-19T16:37:23.007Z,101918.84
2023-05-19T16:39:53.309Z,101918.59
2023-05-19T16:42:23.507Z,101923.13
2023-05-19T16:44:53.767Z,101916.00
2023-05-19T16:47:41.527Z,101917.81
2023-05-19T16:50:13.087Z,101910.81
2023-05-19T16:52:43.462Z,101923.69
2023-05-19T16:55:17.493Z,101922.03
2023-05-19T16:57:47.797Z,101916.84
2023-05-19T17:00:18.741Z,101918.25
2023-05-19T17:02:51.822Z,101917.03
2023-05-19T17:05:22.012Z,101905.06
2023-05-19T17:07:52.098Z,101914.34
2023-05-19T17:10:22.862Z,101910.06
2023-05-19T17:12:56.219Z,101914.75
2023-05-19T17:15:27.249Z,101914.34
2023-05-19T17:18:00.285Z,101924.00
2023-05-19T17:20:30.811Z,101918.22
2023-05-19T17:23:00.999Z,101918.03
2023-05-19T17:25:31.515Z,101923.63
2023-05-19T17:28:01.872Z,101926.88
2023-05-19T17:30:32.512Z,101927.16
2023-05-19T17:33:06.282Z,101923.69
2023-05-19T17:35:46.049Z,101924.59
2023-05-19T17:38:16.485Z,101927.53
2023-05-19T17:40:50.220Z,101929.75
2023-05-19T17:43:20.561Z,101929.31
2023-05-19T17:45:52.913Z,101928.56
2023-05-19T17:48:29.297Z,101929.97
2023-05-19T17:51:03.134Z,101938.97
2023-05-19T17:53:37.947Z,101935.84
2023-05-19T17:56:15.969Z,101941.41
2023-05-19T17:58:51.095Z,101943.50
2023-05-19T18:01:33.803Z,101943.97
2023-05-19T18:04:17.008Z,101947.41
2023-05-19T18:06:48.212Z,101943.66
2023-05-19T18:09:23.130Z,101943.06
2023-05-19T18:11:55.304Z,101940.09
2023-05-19T18:14:27.056Z,101943.31
2023-05-19T18:16:57.844Z,101945.63
2023-05-19T18:19:30.895Z,101933.97
2023-05-19T18:22:01.452Z,101936.44
2023-05-19T18:24:31.616Z,101951.75
2023-05-19T18:27:02.183Z,101942.19
2023-05-19T18:29:34.272Z,101940.19
2023-05-19T18:32:04.515Z,101950.59
2023-05-19T18:34:37.640Z,101952.63
2023-05-19T18:37:13.192Z,101953.34
2023-05-19T18:39:44.250Z,101966.41
2023-05-19T18:42:14.499Z,101958.53
2023-05-19T18:44:46.990Z,101959.72
2023-05-19T18:47:23.096Z,101964.09
2023-05-19T18:49:56.113Z,101961.94
2023-05-19T18:52:27.305Z,101970.16
2023-05-19T18:55:04.126Z,101967.72
2023-05-19T18:57:37.308Z,101970.22
2023-05-19T19:00:09.604Z,101967.25
2023-05-19T19:02:41.756Z,101963.91
2023-05-19T19:05:18.062Z,101969.63
2023-05-19T19:07:49.712Z,101967.13
2023-05-19T19:10:26.440Z,101969.97
2023-05-19T19:12:58.017Z,101961.91
2023-05-19T19:15:31.366Z,101967.28
2023-05-19T19:18:02.538Z,101962.63
2023-05-19T19:20:35.606Z,101963.31
2023-05-19T19:23:06.979Z,101968.84
2023-05-19T19:25:37.233Z,101967.53
2023-05-19T19:28:07.599Z,101972.06
2023-05-19T19:30:41.351Z,101970.69
2023-05-19T19:33:11.567Z,101962.00
2023-05-19T19:35:44.550Z,101970.88
2023-05-19T19:38:14.823Z,101977.91
2023-05-19T19:40:45.168Z,101969.56
2023-05-19T19:43:15.333Z,101973.06
2023-05-19T19:45:45.455Z,101970.72
2023-05-19T19:48:15.633Z,101970.06
2023-05-19T19:50:52.987Z,101969.75
2023-05-19T19:53:23.154Z,101970.28
2023-05-19T19:56:00.261Z,101972.13
2023-05-19T19:58:31.246Z,101965.09
2023-05-19T20:01:02.956Z,101967.09
2023-05-19T20:03:33.675Z,101969.28
2023-05-19T20:06:07.774Z,101981.81
2023-05-19T20:08:52.871Z,101973.97
2023-05-19T20:11:27.010Z,101975.31
2023-05-19T20:13:57.254Z,101978.66
2023-05-19T20:16:31.808Z,101985.16
2023-05-19T20:19:04.677Z,101977.47
2023-05-19T20:24:25.325Z,101972.28
2023-05-19T20:26:55.787Z,101984.69
2023-05-19T20:29:26.096Z,101981.50
2023-05-19T20:31:57.369Z,101981.69
2023-05-19T20:34:27.815Z,101987.88
2023-05-19T20:37:00.770Z,101985.88
2023-05-19T20:39:31.369Z,101994.91
2023-05-19T20:42:04.408Z,102000.59
2023-05-19T20:44:34.628Z,102010.31
2023-05-19T20:47:04.956Z,102006.28
2023-05-19T20:49:35.413Z,102001.41
2023-05-19T20:52:11.012Z,101998.06
2023-05-19T20:54:44.393Z,101999.91
2023-05-19T20:57:15.076Z,102001.06
2023-05-19T20:59:45.218Z,102006.25
2023-05-19T21:02:15.434Z,102009.28
2023-05-19T21:04:46.314Z,102005.59
2023-05-19T21:07:24.537Z,102006.59
2023-05-19T21:09:54.757Z,101999.91
2023-05-19T21:12:25.476Z,102001.91
2023-05-19T21:14:55.571Z,101996.56
2023-05-19T21:17:25.779Z,101991.66
2023-05-19T21:19:59.657Z,101992.31
2023-05-19T21:22:32.528Z,102001.00
2023-05-19T21:25:02.870Z,101998.97
2023-05-19T21:27:35.833Z,102010.00
2023-05-19T21:30:06.824Z,102018.84
2023-05-19T21:32:39.711Z,102021.69
2023-05-19T21:35:12.728Z,102022.19
2023-05-19T21:37:48.241Z,102025.50
2023-05-19T21:40:18.737Z,102020.78
2023-05-19T21:42:49.032Z,102024.78
2023-05-19T21:45:20.340Z,102020.06
2023-05-19T21:47:51.950Z,102027.59
2023-05-19T21:50:22.144Z,102030.06
2023-05-19T21:52:54.915Z,102022.88
2023-05-19T21:55:25.284Z,102029.38
2023-05-19T21:57:55.401Z,102028.03
2023-05-19T22:00:25.899Z,102029.19
2023-05-19T22:02:56.093Z,102026.00
2023-05-19T22:05:26.314Z,102031.50
2023-05-19T22:07:59.241Z,102028.59
2023-05-19T22:10:29.520Z,102027.59
2023-05-19T22:12:59.883Z,102030.91
2023-05-19T22:15:30.099Z,102029.72
2023-05-19T22:18:00.266Z,102029.19
2023-05-19T22:20:30.536Z,102023.84
2023-05-19T22:23:04.233Z,102024.84
2023-05-19T22:25:34.643Z,102029.69
2023-05-19T22:28:06.103Z,102025.81
2023-05-19T22:30:38.493Z,102034.28
2023-05-19T22:33:10.127Z,102037.72
2023-05-19T22:35:40.490Z,102029.00
2023-05-19T22:38:13.249Z,102039.00
2023-05-19T22:40:43.640Z,102042.66
2023-05-19T22:43:13.944Z,102036.78
2023-05-19T22:45:44.173Z,102037.94
2023-05-19T22:48:14.294Z,102042.97
2023-05-19T22:50:44.492Z,102035.28
2023-05-19T22:53:17.371Z,102038.09
2023-05-19T22:55:47.666Z,102041.75
2023-05-19T22:58:17.730Z,102043.06
2023-05-19T23:00:47.919Z,102043.22
2023-05-19T23:03:18.420Z,102040.66
2023-05-19T23:05:48.694Z,102045.16
2023-05-19T23:08:21.393Z,102052.16
2023-05-19T23:10:51.632Z,102049.78
2023-05-19T23:13:21.795Z,102049.72
2023-05-19T23:15:52.077Z,102050.16
2023-05-19T23:18:22.167Z,102042.31
2023-05-19T23:20:52.286Z,102043.63
2023-05-19T23:23:25.036Z,102047.13
2023-05-19T23:25:55.120Z,102040.94
2023-05-19T23:28:25.310Z,102045.53
2023-05-19T23:30:56.511Z,102040.34
2023-05-19T23:33:26.718Z,102036.72
2023-05-19T23:35:57.258Z,102039.53
2023-05-19T23:38:29.986Z,102033.22
2023-05-19T23:41:00.065Z,102034.06
2023-05-19T23:43:30.369Z,102036.19
2023-05-19T23:46:00.586Z,102031.31
2023-05-19T23:48:31.484Z,102031.75
2023-05-19T23:51:01.769Z,102028.41
2023-05-19T23:53:34.558Z,102024.38
2023-05-19T23:56:04.636Z,102025.50
2023-05-19T23:58:34.917Z,102028.19
